sensor_id;sensor_type;location;lat;lon;timestamp;temperature;humidity
3380;DHT22;1703;51.964;7.642;2023-02-08T00:00:48;1.40;99.90
3380;DHT22;1703;51.964;7.642;2023-02-08T00:03:15;1.40;99.90
3380;DHT22;1703;51.964;7.642;2023-02-08T00:05:43;1.50;99.90
3380;DHT22;1703;51.964;7.642;2023-02-08T00:08:10;1.40;99.90
3380;DHT22;1703;51.964;7.642;2023-02-08T00:10:37;1.40;99.90
3380;DHT22;1703;51.964;7.642;2023-02-08T00:13:03;1.40;99.90
3380;DHT22;1703;51.964;7.642;2023-02-08T00:15:30;1.40;99.90
3380;DHT22;1703;51.964;7.642;2023-02-08T00:17:58;1.30;99.90
3380;DHT22;1703;51.964;7.642;2023-02-08T00:20:25;1.30;99.90
3380;DHT22;1703;51.964;7.642;2023-02-08T00:22:52;1.30;99.90
3380;DHT22;1703;51.964;7.642;2023-02-08T00:25:19;1.30;99.90
3380;DHT22;1703;51.964;7.642;2023-02-08T00:27:46;1.30;99.90
3380;DHT22;1703;51.964;7.642;2023-02-08T00:30:12;1.20;99.90
3380;DHT22;1703;51.964;7.642;2023-02-08T00:32:39;1.20;99.90
3380;DHT22;1703;51.964;7.642;2023-02-08T00:35:07;1.10;99.90
3380;DHT22;1703;51.964;7.642;2023-02-08T00:37:34;1.10;99.90
3380;DHT22;1703;51.964;7.642;2023-02-08T00:40:01;1.10;99.90
3380;DHT22;1703;51.964;7.642;2023-02-08T00:42:30;1.20;99.90
3380;DHT22;1703;51.964;7.642;2023-02-08T00:44:57;1.20;99.90
3380;DHT22;1703;51.964;7.642;2023-02-08T00:47:24;1.30;99.90
3380;DHT22;1703;51.964;7.642;2023-02-08T00:49:52;1.20;99.90
3380;DHT22;1703;51.964;7.642;2023-02-08T00:52:20;1.20;99.90
3380;DHT22;1703;51.964;7.642;2023-02-08T00:54:47;1.20;99.90
3380;DHT22;1703;51.964;7.642;2023-02-08T00:57:14;1.20;99.90
3380;DHT22;1703;51.964;7.642;2023-02-08T00:59:41;1.10;99.90
3380;DHT22;1703;51.964;7.642;2023-02-08T01:02:08;1.10;99.90
3380;DHT22;1703;51.964;7.642;2023-02-08T01:04:35;1.20;99.90
3380;DHT22;1703;51.964;7.642;2023-02-08T01:07:02;1.20;99.90
3380;DHT22;1703;51.964;7.642;2023-02-08T01:09:31;1.20;99.90
3380;DHT22;1703;51.964;7.642;2023-02-08T01:11:58;1.20;99.90
3380;DHT22;1703;51.964;7.642;2023-02-08T01:14:26;1.10;99.90
3380;DHT22;1703;51.964;7.642;2023-02-08T01:16:53;1.10;99.90
3380;DHT22;1703;51.964;7.642;2023-02-08T01:19:20;1.10;99.90
3380;DHT22;1703;51.964;7.642;2023-02-08T01:21:46;1.10;99.90
3380;DHT22;1703;51.964;7.642;2023-02-08T01:24:15;1.10;99.90
3380;DHT22;1703;51.964;7.642;2023-02-08T01:26:43;1.10;99.90
3380;DHT22;1703;51.964;7.642;2023-02-08T01:29:10;1.10;99.90
3380;DHT22;1703;51.964;7.642;2023-02-08T01:31:39;1.10;99.90
3380;DHT22;1703;51.964;7.642;2023-02-08T01:34:07;1.10;99.90
3380;DHT22;1703;51.964;7.642;2023-02-08T01:36:34;1.10;99.90
3380;DHT22;1703;51.964;7.642;2023-02-08T01:39:03;1.10;99.90
3380;DHT22;1703;51.964;7.642;2023-02-08T01:41:32;1.10;99.90
3380;DHT22;1703;51.964;7.642;2023-02-08T01:44:07;1.10;99.90
3380;DHT22;1703;51.964;7.642;2023-02-08T01:46:36;1.10;99.90
3380;DHT22;1703;51.964;7.642;2023-02-08T01:49:09;1.00;99.90
3380;DHT22;1703;51.964;7.642;2023-02-08T01:51:39;1.00;99.90
3380;DHT22;1703;51.964;7.642;2023-02-08T01:54:09;0.90;99.90
3380;DHT22;1703;51.964;7.642;2023-02-08T01:56:38;1.00;99.90
3380;DHT22;1703;51.964;7.642;2023-02-08T01:59:10;1.00;99.90
3380;DHT22;1703;51.964;7.642;2023-02-08T02:01:39;1.00;99.90
3380;DHT22;1703;51.964;7.642;2023-02-08T02:04:07;1.00;99.90
3380;DHT22;1703;51.964;7.642;2023-02-08T02:06:36;1.00;99.90
3380;DHT22;1703;51.964;7.642;2023-02-08T02:09:13;1.00;99.90
3380;DHT22;1703;51.964;7.642;2023-02-08T02:11:42;1.00;99.90
3380;DHT22;1703;51.964;7.642;2023-02-08T02:14:11;1.00;99.90
3380;DHT22;1703;51.964;7.642;2023-02-08T02:16:38;1.00;99.90
3380;DHT22;1703;51.964;7.642;2023-02-08T02:19:11;0.90;99.90
3380;DHT22;1703;51.964;7.642;2023-02-08T02:21:54;0.90;99.90
3380;DHT22;1703;51.964;7.642;2023-02-08T02:24:46;0.90;99.90
3380;DHT22;1703;51.964;7.642;2023-02-08T02:30:35;0.80;99.90
3380;DHT22;1703;51.964;7.642;2023-02-08T02:33:22;0.90;99.90
3380;DHT22;1703;51.964;7.642;2023-02-08T02:35:56;0.90;99.90
3380;DHT22;1703;51.964;7.642;2023-02-08T02:38:31;0.90;99.90
3380;DHT22;1703;51.964;7.642;2023-02-08T02:41:06;0.90;99.90
3380;DHT22;1703;51.964;7.642;2023-02-08T02:43:44;0.90;99.90
3380;DHT22;1703;51.964;7.642;2023-02-08T02:46:24;0.90;99.90
3380;DHT22;1703;51.964;7.642;2023-02-08T02:49:03;0.90;99.90
3380;DHT22;1703;51.964;7.642;2023-02-08T02:51:37;0.80;99.90
3380;DHT22;1703;51.964;7.642;2023-02-08T02:54:07;0.80;99.90
3380;DHT22;1703;51.964;7.642;2023-02-08T02:56:38;0.90;99.90
3380;DHT22;1703;51.964;7.642;2023-02-08T02:59:09;0.80;99.90
3380;DHT22;1703;51.964;7.642;2023-02-08T03:01:37;0.80;99.90
3380;DHT22;1703;51.964;7.642;2023-02-08T03:04:13;0.80;99.90
3380;DHT22;1703;51.964;7.642;2023-02-08T03:06:50;0.80;99.90
3380;DHT22;1703;51.964;7.642;2023-02-08T03:09:34;0.70;99.90
3380;DHT22;1703;51.964;7.642;2023-02-08T03:12:10;0.70;99.90
3380;DHT22;1703;51.964;7.642;2023-02-08T03:14:43;0.70;99.90
3380;DHT22;1703;51.964;7.642;2023-02-08T03:17:32;0.70;99.90
3380;DHT22;1703;51.964;7.642;2023-02-08T03:20:06;0.70;99.90
3380;DHT22;1703;51.964;7.642;2023-02-08T03:22:41;0.80;99.90
3380;DHT22;1703;51.964;7.642;2023-02-08T03:25:13;0.80;99.90
3380;DHT22;1703;51.964;7.642;2023-02-08T03:27:49;0.70;99.90
3380;DHT22;1703;51.964;7.642;2023-02-08T03:30:21;0.70;99.90
3380;DHT22;1703;51.964;7.642;2023-02-08T03:32:54;0.60;99.90
3380;DHT22;1703;51.964;7.642;2023-02-08T03:35:26;0.50;99.90
3380;DHT22;1703;51.964;7.642;2023-02-08T03:37:58;0.40;99.90
3380;DHT22;1703;51.964;7.642;2023-02-08T03:40:28;0.40;99.90
3380;DHT22;1703;51.964;7.642;2023-02-08T03:42:59;0.40;99.90
3380;DHT22;1703;51.964;7.642;2023-02-08T03:45:30;0.50;99.90
3380;DHT22;1703;51.964;7.642;2023-02-08T03:47:59;0.50;99.90
3380;DHT22;1703;51.964;7.642;2023-02-08T03:50:32;0.50;99.90
3380;DHT22;1703;51.964;7.642;2023-02-08T03:53:01;0.50;99.90
3380;DHT22;1703;51.964;7.642;2023-02-08T03:55:32;0.50;99.90
3380;DHT22;1703;51.964;7.642;2023-02-08T03:58:04;0.40;99.90
3380;DHT22;1703;51.964;7.642;2023-02-08T04:00:35;0.40;99.90
3380;DHT22;1703;51.964;7.642;2023-02-08T04:03:07;0.40;99.90
3380;DHT22;1703;51.964;7.642;2023-02-08T04:05:37;0.30;99.90
3380;DHT22;1703;51.964;7.642;2023-02-08T04:08:04;0.30;99.90
3380;DHT22;1703;51.964;7.642;2023-02-08T04:10:31;0.30;99.90
3380;DHT22;1703;51.964;7.642;2023-02-08T04:12:58;0.30;99.90
3380;DHT22;1703;51.964;7.642;2023-02-08T04:15:25;0.40;99.90
3380;DHT22;1703;51.964;7.642;2023-02-08T04:17:52;0.30;99.90
3380;DHT22;1703;51.964;7.642;2023-02-08T04:20:19;0.20;99.90
3380;DHT22;1703;51.964;7.642;2023-02-08T04:22:47;0.30;99.90
3380;DHT22;1703;51.964;7.642;2023-02-08T04:25:14;0.30;99.90
3380;DHT22;1703;51.964;7.642;2023-02-08T04:27:41;0.30;99.90
3380;DHT22;1703;51.964;7.642;2023-02-08T04:30:09;0.30;99.90
3380;DHT22;1703;51.964;7.642;2023-02-08T04:32:36;0.30;99.90
3380;DHT22;1703;51.964;7.642;2023-02-08T04:35:03;0.30;99.90
3380;DHT22;1703;51.964;7.642;2023-02-08T04:37:30;0.20;99.90
3380;DHT22;1703;51.964;7.642;2023-02-08T04:39:59;0.20;99.90
3380;DHT22;1703;51.964;7.642;2023-02-08T04:42:25;0.20;99.90
3380;DHT22;1703;51.964;7.642;2023-02-08T04:44:52;0.10;99.90
3380;DHT22;1703;51.964;7.642;2023-02-08T04:47:19;0.10;99.90
3380;DHT22;1703;51.964;7.642;2023-02-08T04:49:46;0.10;99.90
3380;DHT22;1703;51.964;7.642;2023-02-08T04:52:13;0.10;99.90
3380;DHT22;1703;51.964;7.642;2023-02-08T04:54:39;0.00;99.90
3380;DHT22;1703;51.964;7.642;2023-02-08T04:57:08;0.00;99.90
3380;DHT22;1703;51.964;7.642;2023-02-08T04:59:35;0.00;99.90
3380;DHT22;1703;51.964;7.642;2023-02-08T05:02:02;0.00;99.90
3380;DHT22;1703;51.964;7.642;2023-02-08T05:04:29;0.00;99.90
3380;DHT22;1703;51.964;7.642;2023-02-08T05:06:56;0.00;99.90
3380;DHT22;1703;51.964;7.642;2023-02-08T05:09:22;-0.10;99.90
3380;DHT22;1703;51.964;7.642;2023-02-08T05:11:49;-0.10;99.90
3380;DHT22;1703;51.964;7.642;2023-02-08T05:14:17;-0.20;99.90
3380;DHT22;1703;51.964;7.642;2023-02-08T05:16:44;-0.20;99.90
3380;DHT22;1703;51.964;7.642;2023-02-08T05:19:11;-0.20;99.90
3380;DHT22;1703;51.964;7.642;2023-02-08T05:21:38;-0.20;99.90
3380;DHT22;1703;51.964;7.642;2023-02-08T05:24:05;-0.20;99.90
3380;DHT22;1703;51.964;7.642;2023-02-08T05:26:33;-0.20;99.90
3380;DHT22;1703;51.964;7.642;2023-02-08T05:29:00;-0.20;99.90
3380;DHT22;1703;51.964;7.642;2023-02-08T05:31:28;-0.10;99.90
3380;DHT22;1703;51.964;7.642;2023-02-08T05:33:55;-0.20;99.90
3380;DHT22;1703;51.964;7.642;2023-02-08T05:36:22;-0.30;99.90
3380;DHT22;1703;51.964;7.642;2023-02-08T05:38:49;-0.20;99.90
3380;DHT22;1703;51.964;7.642;2023-02-08T05:41:16;-0.20;99.90
3380;DHT22;1703;51.964;7.642;2023-02-08T05:43:43;-0.20;99.90
3380;DHT22;1703;51.964;7.642;2023-02-08T05:46:10;-0.30;99.90
3380;DHT22;1703;51.964;7.642;2023-02-08T05:48:38;-0.30;99.90
3380;DHT22;1703;51.964;7.642;2023-02-08T05:51:05;-0.30;99.90
3380;DHT22;1703;51.964;7.642;2023-02-08T05:53:32;-0.30;99.90
3380;DHT22;1703;51.964;7.642;2023-02-08T05:55:59;-0.30;99.90
3380;DHT22;1703;51.964;7.642;2023-02-08T05:58:26;-0.30;99.90
3380;DHT22;1703;51.964;7.642;2023-02-08T06:00:53;-0.30;99.90
3380;DHT22;1703;51.964;7.642;2023-02-08T06:03:19;-0.10;99.90
3380;DHT22;1703;51.964;7.642;2023-02-08T06:05:47;-0.10;99.90
3380;DHT22;1703;51.964;7.642;2023-02-08T06:08:14;0.00;99.90
3380;DHT22;1703;51.964;7.642;2023-02-08T06:10:41;-0.10;99.90
3380;DHT22;1703;51.964;7.642;2023-02-08T06:13:08;-0.10;99.90
3380;DHT22;1703;51.964;7.642;2023-02-08T06:15:34;-0.10;99.90
3380;DHT22;1703;51.964;7.642;2023-02-08T06:18:01;-0.20;99.90
3380;DHT22;1703;51.964;7.642;2023-02-08T06:20:28;-0.10;99.90
3380;DHT22;1703;51.964;7.642;2023-02-08T06:22:56;-0.10;99.90
3380;DHT22;1703;51.964;7.642;2023-02-08T06:25:23;-0.10;99.90
3380;DHT22;1703;51.964;7.642;2023-02-08T06:27:50;-0.10;99.90
3380;DHT22;1703;51.964;7.642;2023-02-08T06:30:16;-0.10;99.90
3380;DHT22;1703;51.964;7.642;2023-02-08T06:32:43;-0.10;99.90
3380;DHT22;1703;51.964;7.642;2023-02-08T06:35:10;-0.10;99.90
3380;DHT22;1703;51.964;7.642;2023-02-08T06:37:37;-0.10;99.90
3380;DHT22;1703;51.964;7.642;2023-02-08T06:40:06;-0.10;99.90
3380;DHT22;1703;51.964;7.642;2023-02-08T06:42:33;0.00;99.90
3380;DHT22;1703;51.964;7.642;2023-02-08T06:45:00;-0.10;99.90
3380;DHT22;1703;51.964;7.642;2023-02-08T06:47:27;0.00;99.90
3380;DHT22;1703;51.964;7.642;2023-02-08T06:49:54;0.00;99.90
3380;DHT22;1703;51.964;7.642;2023-02-08T06:52:21;0.00;99.90
3380;DHT22;1703;51.964;7.642;2023-02-08T06:54:48;0.00;99.90
3380;DHT22;1703;51.964;7.642;2023-02-08T06:57:16;0.00;99.90
3380;DHT22;1703;51.964;7.642;2023-02-08T06:59:42;0.00;99.90
3380;DHT22;1703;51.964;7.642;2023-02-08T07:02:12;0.00;99.90
3380;DHT22;1703;51.964;7.642;2023-02-08T07:04:39;0.00;99.90
3380;DHT22;1703;51.964;7.642;2023-02-08T07:07:06;0.00;99.90
3380;DHT22;1703;51.964;7.642;2023-02-08T07:09:33;-0.10;99.90
3380;DHT22;1703;51.964;7.642;2023-02-08T07:11:59;-0.10;99.90
3380;DHT22;1703;51.964;7.642;2023-02-08T07:14:33;0.00;99.90
3380;DHT22;1703;51.964;7.642;2023-02-08T07:17:00;0.00;99.90
3380;DHT22;1703;51.964;7.642;2023-02-08T07:19:28;0.00;99.90
3380;DHT22;1703;51.964;7.642;2023-02-08T07:21:55;0.00;99.90
3380;DHT22;1703;51.964;7.642;2023-02-08T07:24:22;0.00;99.90
3380;DHT22;1703;51.964;7.642;2023-02-08T07:26:49;0.10;99.90
3380;DHT22;1703;51.964;7.642;2023-02-08T07:29:16;0.10;99.90
3380;DHT22;1703;51.964;7.642;2023-02-08T07:31:44;0.10;99.90
3380;DHT22;1703;51.964;7.642;2023-02-08T07:34:10;0.30;99.90
3380;DHT22;1703;51.964;7.642;2023-02-08T07:36:37;0.30;99.90
3380;DHT22;1703;51.964;7.642;2023-02-08T07:39:04;0.40;99.90
3380;DHT22;1703;51.964;7.642;2023-02-08T07:41:31;0.40;99.90
3380;DHT22;1703;51.964;7.642;2023-02-08T07:43:59;0.30;99.90
3380;DHT22;1703;51.964;7.642;2023-02-08T07:46:26;0.30;99.90
3380;DHT22;1703;51.964;7.642;2023-02-08T07:48:54;0.30;99.90
3380;DHT22;1703;51.964;7.642;2023-02-08T07:51:20;0.30;99.90
3380;DHT22;1703;51.964;7.642;2023-02-08T07:53:47;0.40;99.90
3380;DHT22;1703;51.964;7.642;2023-02-08T07:56:14;0.40;99.90
3380;DHT22;1703;51.964;7.642;2023-02-08T07:58:41;0.40;99.90
3380;DHT22;1703;51.964;7.642;2023-02-08T08:01:08;0.50;99.90
3380;DHT22;1703;51.964;7.642;2023-02-08T08:03:35;0.40;99.90
3380;DHT22;1703;51.964;7.642;2023-02-08T08:06:03;0.40;99.90
3380;DHT22;1703;51.964;7.642;2023-02-08T08:08:30;0.40;99.90
3380;DHT22;1703;51.964;7.642;2023-02-08T08:10:57;0.40;99.90
3380;DHT22;1703;51.964;7.642;2023-02-08T08:13:26;0.50;99.90
3380;DHT22;1703;51.964;7.642;2023-02-08T08:15:53;0.60;99.90
3380;DHT22;1703;51.964;7.642;2023-02-08T08:18:19;0.50;99.90
3380;DHT22;1703;51.964;7.642;2023-02-08T08:20:46;0.50;99.90
3380;DHT22;1703;51.964;7.642;2023-02-08T08:23:14;0.60;99.90
3380;DHT22;1703;51.964;7.642;2023-02-08T08:25:41;0.50;99.90
3380;DHT22;1703;51.964;7.642;2023-02-08T08:28:08;0.60;99.90
3380;DHT22;1703;51.964;7.642;2023-02-08T08:30:34;0.60;99.90
3380;DHT22;1703;51.964;7.642;2023-02-08T08:33:01;0.70;99.90
3380;DHT22;1703;51.964;7.642;2023-02-08T08:35:28;0.70;99.90
3380;DHT22;1703;51.964;7.642;2023-02-08T08:37:55;0.80;99.90
3380;DHT22;1703;51.964;7.642;2023-02-08T08:40:23;0.90;99.90
3380;DHT22;1703;51.964;7.642;2023-02-08T08:42:50;0.90;99.90
3380;DHT22;1703;51.964;7.642;2023-02-08T08:45:16;0.90;99.90
3380;DHT22;1703;51.964;7.642;2023-02-08T08:47:43;0.90;99.90
3380;DHT22;1703;51.964;7.642;2023-02-08T08:50:10;1.00;99.90
3380;DHT22;1703;51.964;7.642;2023-02-08T08:52:37;1.00;99.90
3380;DHT22;1703;51.964;7.642;2023-02-08T08:55:05;1.00;99.90
3380;DHT22;1703;51.964;7.642;2023-02-08T08:57:33;1.00;99.90
3380;DHT22;1703;51.964;7.642;2023-02-08T09:00:00;1.10;99.90
3380;DHT22;1703;51.964;7.642;2023-02-08T09:02:27;1.20;99.90
3380;DHT22;1703;51.964;7.642;2023-02-08T09:04:53;1.30;99.90
3380;DHT22;1703;51.964;7.642;2023-02-08T09:07:20;1.50;99.90
3380;DHT22;1703;51.964;7.642;2023-02-08T09:09:47;1.50;99.90
3380;DHT22;1703;51.964;7.642;2023-02-08T09:12:14;1.50;99.90
3380;DHT22;1703;51.964;7.642;2023-02-08T09:14:42;1.50;99.90
3380;DHT22;1703;51.964;7.642;2023-02-08T09:17:10;1.50;99.90
3380;DHT22;1703;51.964;7.642;2023-02-08T09:19:37;1.50;99.90
3380;DHT22;1703;51.964;7.642;2023-02-08T09:22:05;1.50;99.90
3380;DHT22;1703;51.964;7.642;2023-02-08T09:24:32;1.60;99.90
3380;DHT22;1703;51.964;7.642;2023-02-08T09:26:59;1.80;99.90
3380;DHT22;1703;51.964;7.642;2023-02-08T09:29:25;1.80;99.90
3380;DHT22;1703;51.964;7.642;2023-02-08T09:31:55;1.80;99.90
3380;DHT22;1703;51.964;7.642;2023-02-08T09:34:22;2.00;99.90
3380;DHT22;1703;51.964;7.642;2023-02-08T09:36:49;2.30;99.90
3380;DHT22;1703;51.964;7.642;2023-02-08T09:39:19;2.80;99.90
3380;DHT22;1703;51.964;7.642;2023-02-08T09:42:11;3.20;99.90
3380;DHT22;1703;51.964;7.642;2023-02-08T09:44:48;3.50;99.90
3380;DHT22;1703;51.964;7.642;2023-02-08T09:47:22;3.70;99.90
3380;DHT22;1703;51.964;7.642;2023-02-08T09:49:56;3.60;99.90
3380;DHT22;1703;51.964;7.642;2023-02-08T09:52:27;3.50;99.90
3380;DHT22;1703;51.964;7.642;2023-02-08T09:54:58;3.50;99.90
3380;DHT22;1703;51.964;7.642;2023-02-08T09:57:30;3.60;99.90
3380;DHT22;1703;51.964;7.642;2023-02-08T10:00:02;3.50;99.90
3380;DHT22;1703;51.964;7.642;2023-02-08T10:02:33;3.40;99.90
3380;DHT22;1703;51.964;7.642;2023-02-08T10:05:02;3.40;99.90
3380;DHT22;1703;51.964;7.642;2023-02-08T10:07:30;3.40;99.90
3380;DHT22;1703;51.964;7.642;2023-02-08T10:09:59;3.40;99.90
3380;DHT22;1703;51.964;7.642;2023-02-08T10:12:35;3.40;99.90
3380;DHT22;1703;51.964;7.642;2023-02-08T10:15:11;3.50;99.90
3380;DHT22;1703;51.964;7.642;2023-02-08T10:17:51;3.50;99.90
3380;DHT22;1703;51.964;7.642;2023-02-08T10:20:32;3.50;99.90
3380;DHT22;1703;51.964;7.642;2023-02-08T10:23:09;3.50;99.90
3380;DHT22;1703;51.964;7.642;2023-02-08T10:25:45;3.50;99.90
3380;DHT22;1703;51.964;7.642;2023-02-08T10:28:29;3.50;99.90
3380;DHT22;1703;51.964;7.642;2023-02-08T10:31:02;3.60;99.90
3380;DHT22;1703;51.964;7.642;2023-02-08T10:33:41;3.70;99.90
3380;DHT22;1703;51.964;7.642;2023-02-08T10:36:15;3.70;99.90
3380;DHT22;1703;51.964;7.642;2023-02-08T10:38:44;3.80;99.90
3380;DHT22;1703;51.964;7.642;2023-02-08T10:41:15;3.90;99.90
3380;DHT22;1703;51.964;7.642;2023-02-08T10:43:45;4.00;99.90
3380;DHT22;1703;51.964;7.642;2023-02-08T10:46:18;4.10;99.90
3380;DHT22;1703;51.964;7.642;2023-02-08T10:48:59;4.10;99.90
3380;DHT22;1703;51.964;7.642;2023-02-08T10:51:28;4.20;99.90
3380;DHT22;1703;51.964;7.642;2023-02-08T10:53:56;4.20;99.90
3380;DHT22;1703;51.964;7.642;2023-02-08T10:56:40;4.20;99.90
3380;DHT22;1703;51.964;7.642;2023-02-08T10:59:15;4.20;99.90
3380;DHT22;1703;51.964;7.642;2023-02-08T11:01:44;4.30;99.90
3380;DHT22;1703;51.964;7.642;2023-02-08T11:04:14;4.40;99.90
3380;DHT22;1703;51.964;7.642;2023-02-08T11:06:42;4.50;99.90
3380;DHT22;1703;51.964;7.642;2023-02-08T11:09:20;4.60;99.90
3380;DHT22;1703;51.964;7.642;2023-02-08T11:11:48;4.60;99.90
3380;DHT22;1703;51.964;7.642;2023-02-08T11:14:19;4.70;99.90
3380;DHT22;1703;51.964;7.642;2023-02-08T11:16:50;4.80;99.90
3380;DHT22;1703;51.964;7.642;2023-02-08T11:19:27;4.80;99.90
3380;DHT22;1703;51.964;7.642;2023-02-08T11:21:54;4.80;99.90
3380;DHT22;1703;51.964;7.642;2023-02-08T11:24:31;4.90;99.90
3380;DHT22;1703;51.964;7.642;2023-02-08T11:27:00;5.00;99.90
3380;DHT22;1703;51.964;7.642;2023-02-08T11:29:29;5.00;99.90
3380;DHT22;1703;51.964;7.642;2023-02-08T11:31:59;5.10;99.90
3380;DHT22;1703;51.964;7.642;2023-02-08T11:34:28;5.10;99.90
3380;DHT22;1703;51.964;7.642;2023-02-08T11:36:58;5.30;99.90
3380;DHT22;1703;51.964;7.642;2023-02-08T11:39:30;5.30;99.90
3380;DHT22;1703;51.964;7.642;2023-02-08T11:42:00;5.40;99.90
3380;DHT22;1703;51.964;7.642;2023-02-08T11:44:30;5.40;99.90
3380;DHT22;1703;51.964;7.642;2023-02-08T11:46:59;5.50;99.90
3380;DHT22;1703;51.964;7.642;2023-02-08T11:49:34;5.50;99.90
3380;DHT22;1703;51.964;7.642;2023-02-08T11:52:02;5.50;99.90
3380;DHT22;1703;51.964;7.642;2023-02-08T11:54:35;5.70;99.90
3380;DHT22;1703;51.964;7.642;2023-02-08T11:57:12;5.70;99.90
3380;DHT22;1703;51.964;7.642;2023-02-08T11:59:39;5.80;99.90
3380;DHT22;1703;51.964;7.642;2023-02-08T12:02:26;5.80;99.90
3380;DHT22;1703;51.964;7.642;2023-02-08T12:04:55;5.80;99.90
3380;DHT22;1703;51.964;7.642;2023-02-08T12:07:36;5.80;99.90
3380;DHT22;1703;51.964;7.642;2023-02-08T12:10:27;5.80;99.90
3380;DHT22;1703;51.964;7.642;2023-02-08T12:13:27;5.90;99.90
3380;DHT22;1703;51.964;7.642;2023-02-08T12:16:09;6.00;99.90
3380;DHT22;1703;51.964;7.642;2023-02-08T12:18:59;6.00;99.90
3380;DHT22;1703;51.964;7.642;2023-02-08T12:21:34;6.00;99.90
3380;DHT22;1703;51.964;7.642;2023-02-08T12:24:11;6.10;99.90
3380;DHT22;1703;51.964;7.642;2023-02-08T12:26:53;6.10;99.90
3380;DHT22;1703;51.964;7.642;2023-02-08T12:29:32;6.10;99.90
3380;DHT22;1703;51.964;7.642;2023-02-08T12:32:09;6.20;99.90
3380;DHT22;1703;51.964;7.642;2023-02-08T12:34:56;6.30;99.90
3380;DHT22;1703;51.964;7.642;2023-02-08T12:37:37;6.30;99.90
3380;DHT22;1703;51.964;7.642;2023-02-08T12:40:33;6.30;99.90
3380;DHT22;1703;51.964;7.642;2023-02-08T12:43:29;6.30;99.90
3380;DHT22;1703;51.964;7.642;2023-02-08T12:46:14;6.40;99.90
3380;DHT22;1703;51.964;7.642;2023-02-08T12:51:39;6.40;99.90
3380;DHT22;1703;51.964;7.642;2023-02-08T12:54:13;6.40;99.90
3380;DHT22;1703;51.964;7.642;2023-02-08T12:56:44;6.50;99.90
3380;DHT22;1703;51.964;7.642;2023-02-08T12:59:20;6.50;99.90
3380;DHT22;1703;51.964;7.642;2023-02-08T13:01:52;6.50;99.90
3380;DHT22;1703;51.964;7.642;2023-02-08T13:04:24;6.50;99.90
3380;DHT22;1703;51.964;7.642;2023-02-08T13:06:57;6.60;99.90
3380;DHT22;1703;51.964;7.642;2023-02-08T13:09:35;6.70;99.90
3380;DHT22;1703;51.964;7.642;2023-02-08T13:12:10;6.70;99.90
3380;DHT22;1703;51.964;7.642;2023-02-08T13:14:44;6.80;98.70
3380;DHT22;1703;51.964;7.642;2023-02-08T13:17:16;6.80;95.00
3380;DHT22;1703;51.964;7.642;2023-02-08T13:19:52;6.80;93.30
3380;DHT22;1703;51.964;7.642;2023-02-08T13:22:21;6.90;92.70
3380;DHT22;1703;51.964;7.642;2023-02-08T13:24:50;6.80;92.70
3380;DHT22;1703;51.964;7.642;2023-02-08T13:27:20;6.90;93.50
3380;DHT22;1703;51.964;7.642;2023-02-08T13:29:48;6.80;93.10
3380;DHT22;1703;51.964;7.642;2023-02-08T13:32:20;6.90;91.50
3380;DHT22;1703;51.964;7.642;2023-02-08T13:34:57;6.90;90.00
3380;DHT22;1703;51.964;7.642;2023-02-08T13:37:28;6.90;90.30
3380;DHT22;1703;51.964;7.642;2023-02-08T13:40:03;7.00;91.50
3380;DHT22;1703;51.964;7.642;2023-02-08T13:42:35;7.00;90.90
3380;DHT22;1703;51.964;7.642;2023-02-08T13:45:05;7.00;89.70
3380;DHT22;1703;51.964;7.642;2023-02-08T13:47:39;6.90;86.50
3380;DHT22;1703;51.964;7.642;2023-02-08T13:50:36;6.80;86.20
3380;DHT22;1703;51.964;7.642;2023-02-08T13:53:04;6.80;85.40
3380;DHT22;1703;51.964;7.642;2023-02-08T13:55:58;6.90;83.00
3380;DHT22;1703;51.964;7.642;2023-02-08T13:58:35;7.00;85.20
3380;DHT22;1703;51.964;7.642;2023-02-08T14:01:17;7.10;83.80
3380;DHT22;1703;51.964;7.642;2023-02-08T14:04:14;7.20;84.70
3380;DHT22;1703;51.964;7.642;2023-02-08T14:06:48;7.20;88.80
3380;DHT22;1703;51.964;7.642;2023-02-08T14:09:20;7.20;87.40
3380;DHT22;1703;51.964;7.642;2023-02-08T14:11:50;7.20;89.50
3380;DHT22;1703;51.964;7.642;2023-02-08T14:14:22;7.10;89.20
3380;DHT22;1703;51.964;7.642;2023-02-08T14:17:08;7.10;85.20
3380;DHT22;1703;51.964;7.642;2023-02-08T14:19:36;7.10;85.90
3380;DHT22;1703;51.964;7.642;2023-02-08T14:22:05;7.40;88.20
3380;DHT22;1703;51.964;7.642;2023-02-08T14:24:37;7.60;89.30
3380;DHT22;1703;51.964;7.642;2023-02-08T14:27:09;7.70;86.30
3380;DHT22;1703;51.964;7.642;2023-02-08T14:29:36;7.70;88.00
3380;DHT22;1703;51.964;7.642;2023-02-08T14:32:04;7.70;89.60
3380;DHT22;1703;51.964;7.642;2023-02-08T14:34:33;7.60;90.10
3380;DHT22;1703;51.964;7.642;2023-02-08T14:37:04;7.80;90.50
3380;DHT22;1703;51.964;7.642;2023-02-08T14:39:32;8.40;90.40
3380;DHT22;1703;51.964;7.642;2023-02-08T14:42:02;9.20;88.30
3380;DHT22;1703;51.964;7.642;2023-02-08T14:44:58;10.30;86.60
3380;DHT22;1703;51.964;7.642;2023-02-08T14:50:38;12.40;79.50
3380;DHT22;1703;51.964;7.642;2023-02-08T14:53:20;13.20;75.10
3380;DHT22;1703;51.964;7.642;2023-02-08T14:55:51;13.60;74.80
3380;DHT22;1703;51.964;7.642;2023-02-08T14:58:25;13.80;74.00
3380;DHT22;1703;51.964;7.642;2023-02-08T15:00:55;13.70;71.70
3380;DHT22;1703;51.964;7.642;2023-02-08T15:03:23;13.40;70.00
3380;DHT22;1703;51.964;7.642;2023-02-08T15:08:55;12.30;69.00
3380;DHT22;1703;51.964;7.642;2023-02-08T15:11:24;12.10;70.80
3380;DHT22;1703;51.964;7.642;2023-02-08T15:13:55;11.80;69.20
3380;DHT22;1703;51.964;7.642;2023-02-08T15:16:28;11.60;68.40
3380;DHT22;1703;51.964;7.642;2023-02-08T15:18:55;11.30;67.60
3380;DHT22;1703;51.964;7.642;2023-02-08T15:21:28;11.00;70.00
3380;DHT22;1703;51.964;7.642;2023-02-08T15:23:59;10.90;70.30
3380;DHT22;1703;51.964;7.642;2023-02-08T15:26:26;10.80;70.30
3380;DHT22;1703;51.964;7.642;2023-02-08T15:28:53;10.60;70.20
3380;DHT22;1703;51.964;7.642;2023-02-08T15:31:25;10.20;70.90
3380;DHT22;1703;51.964;7.642;2023-02-08T15:33:53;9.80;73.30
3380;DHT22;1703;51.964;7.642;2023-02-08T15:36:24;9.50;75.40
3380;DHT22;1703;51.964;7.642;2023-02-08T15:38:53;9.20;77.40
3380;DHT22;1703;51.964;7.642;2023-02-08T15:41:24;8.90;78.90
3380;DHT22;1703;51.964;7.642;2023-02-08T15:44:00;8.70;80.20
3380;DHT22;1703;51.964;7.642;2023-02-08T15:46:30;8.40;81.40
3380;DHT22;1703;51.964;7.642;2023-02-08T15:48:57;8.20;83.80
3380;DHT22;1703;51.964;7.642;2023-02-08T15:51:25;8.00;85.40
3380;DHT22;1703;51.964;7.642;2023-02-08T15:53:53;7.80;86.60
3380;DHT22;1703;51.964;7.642;2023-02-08T15:56:24;7.60;89.00
3380;DHT22;1703;51.964;7.642;2023-02-08T15:58:54;7.50;91.10
3380;DHT22;1703;51.964;7.642;2023-02-08T16:01:21;7.40;92.10
3380;DHT22;1703;51.964;7.642;2023-02-08T16:03:53;7.30;92.80
3380;DHT22;1703;51.964;7.642;2023-02-08T16:06:24;7.20;94.50
3380;DHT22;1703;51.964;7.642;2023-02-08T16:08:53;7.00;95.10
3380;DHT22;1703;51.964;7.642;2023-02-08T16:11:24;6.90;96.10
3380;DHT22;1703;51.964;7.642;2023-02-08T16:13:53;6.90;96.40
3380;DHT22;1703;51.964;7.642;2023-02-08T16:18:45;6.80;96.80
3380;DHT22;1703;51.964;7.642;2023-02-08T16:19:58;6.70;97.70
3380;DHT22;1703;51.964;7.642;2023-02-08T16:22:35;6.50;99.60
3380;DHT22;1703;51.964;7.642;2023-02-08T16:25:33;6.50;99.90
3380;DHT22;1703;51.964;7.642;2023-02-08T16:28:01;6.40;99.90
3380;DHT22;1703;51.964;7.642;2023-02-08T16:30:28;6.30;99.90
3380;DHT22;1703;51.964;7.642;2023-02-08T16:32:55;6.20;99.90
3380;DHT22;1703;51.964;7.642;2023-02-08T16:35:26;6.10;99.90
3380;DHT22;1703;51.964;7.642;2023-02-08T16:37:55;6.10;99.90
3380;DHT22;1703;51.964;7.642;2023-02-08T16:40:43;6.00;99.90
3380;DHT22;1703;51.964;7.642;2023-02-08T16:43:24;5.90;99.90
3380;DHT22;1703;51.964;7.642;2023-02-08T16:46:15;5.90;99.90
3380;DHT22;1703;51.964;7.642;2023-02-08T16:48:44;5.80;99.90
3380;DHT22;1703;51.964;7.642;2023-02-08T16:51:15;5.80;99.90